Time;durP1;ratioP1;P1;durP2;ratioP2;P2;SDS_P1;SDS_P2;PMS_P1;PMS_P2;Temp;Humidity;BMP_temperature;BMP_pressure;BME280_temperature;BME280_humidity;BME280_pressure;Samples;Min_cycle;Max_cycle;Signal;HPM_P1;HPM_P2
2021/06/11 00:03:26;;;;;;;13.48;9.65;;;14.30;99.90;;;;;;20871309;28;20111;-79
2021/06/11 00:13:27;;;;;;;15.97;10.97;;;14.00;99.90;;;;;;20921115;28;20140;-79
2021/06/11 00:23:28;;;;;;;13.63;10.10;;;13.90;99.90;;;;;;20888305;28;20033;-79
2021/06/11 00:33:29;;;;;;;12.87;9.10;;;14.00;99.90;;;;;;20891198;28;20041;-79
2021/06/11 00:43:30;;;;;;;15.80;10.07;;;13.80;99.90;;;;;;20892336;28;20097;-79
2021/06/11 00:53:30;;;;;;;11.80;8.87;;;13.60;99.90;;;;;;20893925;28;20045;-79
2021/06/11 01:03:31;;;;;;;17.33;9.13;;;13.60;99.90;;;;;;20904965;28;20045;-79
2021/06/11 01:13:32;;;;;;;14.27;10.60;;;13.20;99.90;;;;;;20882686;28;20048;-79
2021/06/11 01:23:33;;;;;;;17.37;9.50;;;13.10;99.90;;;;;;20884984;28;20405;-79
2021/06/11 01:33:36;;;;;;;12.23;9.17;;;13.40;99.90;;;;;;20890591;28;20049;-79
2021/06/11 01:43:38;;;;;;;14.30;10.05;;;13.30;99.90;;;;;;20901593;28;20070;-79
2021/06/11 01:53:41;;;;;;;13.43;9.43;;;12.90;99.90;;;;;;20918156;28;20052;-78
2021/06/11 02:03:43;;;;;;;13.50;9.93;;;12.90;99.90;;;;;;20885218;28;20022;-79
2021/06/11 02:13:46;;;;;;;13.07;9.27;;;13.30;99.90;;;;;;20901258;28;20049;-79
2021/06/11 02:23:47;;;;;;;16.58;9.27;;;13.30;99.90;;;;;;20917623;28;20045;-79
2021/06/11 02:33:48;;;;;;;13.23;8.50;;;13.10;99.90;;;;;;20920599;28;20018;-79
2021/06/11 02:43:51;;;;;;;13.23;10.20;;;12.70;99.90;;;;;;20900493;28;20068;-80
2021/06/11 02:53:53;;;;;;;13.45;9.18;;;12.40;99.90;;;;;;20920533;28;20041;-79
2021/06/11 03:03:56;;;;;;;18.10;10.65;;;12.40;99.90;;;;;;20992074;22;20441;-74
2021/06/11 03:13:58;;;;;;;14.20;9.77;;;12.20;99.90;;;;;;20994467;28;20042;-74
2021/06/11 03:24:05;;;;;;;15.18;9.63;;;12.20;99.90;;;;;;20993489;28;20045;-74
2021/06/11 03:34:12;;;;;;;14.35;9.43;;;12.30;99.90;;;;;;20993147;28;20055;-74
2021/06/11 03:44:16;;;;;;;19.15;10.45;;;12.20;99.90;;;;;;20992165;28;20080;-74
2021/06/11 03:54:18;;;;;;;14.65;9.68;;;12.00;99.90;;;;;;20973428;28;20461;-74
2021/06/11 04:04:19;;;;;;;12.15;8.48;;;12.10;99.90;;;;;;20991163;28;20032;-75
2021/06/11 04:14:26;;;;;;;16.93;8.87;;;12.10;99.90;;;;;;20990889;28;20087;-74
2021/06/11 04:24:32;;;;;;;20.67;9.77;;;12.20;99.90;;;;;;20990202;28;20041;-76
2021/06/11 04:34:33;;;;;;;14.60;10.10;;;12.70;99.90;;;;;;20989921;28;20454;-76
2021/06/11 04:44:33;;;;;;;18.03;9.27;;;13.20;99.90;;;;;;20989340;28;20036;-76
2021/06/11 04:54:34;;;;;;;12.87;8.57;;;13.60;99.90;;;;;;20971029;28;20051;-76
2021/06/11 05:04:36;;;;;;;10.07;7.70;;;13.90;99.90;;;;;;20988857;28;20043;-75
2021/06/11 05:14:36;;;;;;;10.93;7.30;;;14.30;99.90;;;;;;21003976;28;20039;-75
2021/06/11 05:24:37;;;;;;;15.23;8.00;;;14.80;99.90;;;;;;21003834;28;20068;-74
2021/06/11 05:34:38;;;;;;;14.20;9.30;;;15.10;99.90;;;;;;20984625;28;20052;-75
2021/06/11 05:44:39;;;;;;;13.23;8.77;;;15.10;99.90;;;;;;21001281;28;20394;-75
2021/06/11 05:54:40;;;;;;;12.90;9.00;;;15.50;99.90;;;;;;20964627;28;20155;-75
2021/06/11 06:04:41;;;;;;;16.40;8.90;;;15.90;99.90;;;;;;20984311;28;20037;-75
2021/06/11 06:14:41;;;;;;;13.27;8.60;;;16.50;99.90;;;;;;20940339;28;20041;-75
2021/06/11 06:24:42;;;;;;;15.00;7.97;;;17.00;99.90;;;;;;20915725;28;20033;-76
2021/06/11 06:34:43;;;;;;;16.30;8.20;;;17.60;99.90;;;;;;20897235;28;20519;-76
2021/06/11 06:44:45;;;;;;;14.87;8.03;;;18.00;99.90;;;;;;20945394;28;20138;-76
2021/06/11 06:54:46;;;;;;;9.40;7.20;;;18.20;99.90;;;;;;20977712;28;20068;-76
2021/06/11 07:04:47;;;;;;;9.67;7.07;;;18.80;99.90;;;;;;20977136;28;20075;-77
2021/06/11 07:14:48;;;;;;;10.23;7.30;;;19.50;99.90;;;;;;20991397;28;20041;-76
2021/06/11 07:24:49;;;;;;;8.47;5.53;;;20.10;99.90;;;;;;20975702;28;20040;-76
2021/06/11 07:34:50;;;;;;;9.63;6.20;;;20.70;99.90;;;;;;20974295;28;20045;-76
2021/06/11 07:44:50;;;;;;;9.83;6.57;;;20.80;99.90;;;;;;20965610;28;20033;-76
2021/06/11 07:54:51;;;;;;;6.10;5.13;;;20.90;99.90;;;;;;20970252;28;20044;-76
2021/06/11 08:04:52;;;;;;;7.20;5.87;;;22.10;99.90;;;;;;20871278;28;20043;-76
2021/06/11 08:14:53;;;;;;;9.40;4.77;;;22.10;99.90;;;;;;20887398;28;20259;-76
2021/06/11 08:24:54;;;;;;;6.80;5.63;;;22.90;99.90;;;;;;20888395;28;20044;-78
2021/06/11 08:34:55;;;;;;;8.82;5.30;;;23.60;99.90;;;;;;20917359;28;20044;-77
2021/06/11 08:44:58;;;;;;;5.90;4.97;;;24.40;99.90;;;;;;20980716;28;20110;-78
2021/06/11 08:54:59;;;;;;;7.15;5.57;;;24.30;99.90;;;;;;20986178;28;20119;-77
2021/06/11 09:05:01;;;;;;;6.13;5.00;;;23.90;99.90;;;;;;21007919;22;20062;-76
2021/06/11 09:15:12;;;;;;;5.38;4.88;;;25.40;99.90;;;;;;20987803;28;20438;-77
2021/06/11 09:25:39;;;;;;;6.20;4.80;;;25.90;99.90;;;;;;20968200;28;20044;-77
2021/06/11 09:35:52;;;;;;;5.25;4.35;;;25.80;99.90;;;;;;20980295;28;20051;-77
2021/06/11 09:46:12;;;;;;;4.32;3.63;;;26.70;99.90;;;;;;20964106;28;20827;-76
2021/06/11 09:56:25;;;;;;;6.07;4.63;;;27.10;99.90;;;;;;20963384;28;20478;-77
2021/06/11 10:06:27;;;;;;;4.90;4.18;;;26.80;99.90;;;;;;20966633;28;20132;-77
2021/06/11 10:16:28;;;;;;;7.28;4.57;;;27.70;99.90;;;;;;20979605;28;20153;-76
2021/06/11 10:26:29;;;;;;;5.63;4.40;;;28.40;99.90;;;;;;20978968;28;20072;-77
2021/06/11 10:36:32;;;;;;;8.32;5.28;;;28.80;99.90;;;;;;20934203;28;20499;-76
2021/06/11 10:46:33;;;;;;;6.35;4.88;;;28.30;99.90;;;;;;20939851;28;20040;-76
2021/06/11 10:56:33;;;;;;;6.05;4.60;;;28.60;99.90;;;;;;20975236;28;20497;-76
2021/06/11 11:06:35;;;;;;;5.40;3.80;;;29.30;99.90;;;;;;20956802;28;20702;-77
2021/06/11 11:16:37;;;;;;;4.97;3.72;;;29.20;99.90;;;;;;20979618;28;20032;-76
2021/06/11 11:26:50;;;;;;;5.55;3.95;;;29.70;99.90;;;;;;20990278;28;20036;-76
2021/06/11 11:36:51;;;;;;;4.05;3.65;;;28.70;99.90;;;;;;20987131;28;20032;-76
2021/06/11 11:46:57;;;;;;;3.70;3.40;;;28.70;99.90;;;;;;20973536;28;20146;-75
2021/06/11 11:56:59;;;;;;;5.30;4.00;;;28.50;99.90;;;;;;20993086;28;20055;-76
2021/06/11 12:07:00;;;;;;;4.00;3.50;;;28.30;99.90;;;;;;20991723;28;20098;-76
2021/06/11 12:17:01;;;;;;;4.00;3.55;;;28.40;99.90;;;;;;20993319;28;20067;-76
2021/06/11 12:27:02;;;;;;;5.53;3.85;;;29.40;99.40;;;;;;20990695;28;20037;-76
2021/06/11 12:37:04;;;;;;;5.28;3.33;;;29.10;99.90;;;;;;20990742;28;20043;-76
2021/06/11 12:47:08;;;;;;;5.53;3.70;;;29.30;99.90;;;;;;20990600;28;20087;-76
2021/06/11 12:57:16;;;;;;;4.88;3.80;;;29.30;99.90;;;;;;20989653;28;20047;-77
2021/06/11 13:07:17;;;;;;;6.70;3.58;;;30.40;96.90;;;;;;20971277;28;20037;-76
2021/06/11 13:17:18;;;;;;;4.20;3.80;;;28.50;99.90;;;;;;20988144;28;20601;-76
2021/06/11 13:27:19;;;;;;;5.68;4.53;;;28.70;99.90;;;;;;20991729;28;20052;-76
2021/06/11 13:37:19;;;;;;;5.78;4.40;;;27.80;99.90;;;;;;21006803;28;20508;-76
2021/06/11 13:47:20;;;;;;;4.43;3.92;;;27.70;99.90;;;;;;20984226;28;20044;-76
2021/06/11 13:57:21;;;;;;;4.75;4.13;;;28.10;99.90;;;;;;20983660;28;20124;-76
2021/06/11 14:07:22;;;;;;;14.13;5.40;;;28.00;99.90;;;;;;21002612;28;20112;-76
2021/06/11 14:17:23;;;;;;;;;;;27.00;99.90;;;;;;21000494;28;20035;-76
2021/06/11 14:27:25;;;;;;;6.40;5.30;;;25.90;99.90;;;;;;20981357;28;19912;-76
2021/06/11 14:37:25;;;;;;;8.60;5.53;;;26.20;99.90;;;;;;20998542;28;20036;-75
2021/06/11 14:47:26;;;;;;;;;;;26.40;99.90;;;;;;20998096;28;20044;-77
2021/06/11 14:57:29;;;;;;;6.67;4.87;;;26.00;99.90;;;;;;20999512;28;19912;-78
2021/06/11 15:07:30;;;;;;;6.95;5.85;;;25.40;99.90;;;;;;20985321;28;20131;-78
2021/06/11 15:17:30;;;;;;;8.03;5.50;;;24.80;99.90;;;;;;20998849;28;20056;-77
2021/06/11 15:27:31;;;;;;;3.20;2.90;;;24.30;99.90;;;;;;20996836;28;20079;-78
2021/06/11 15:37:32;;;;;;;2.83;2.53;;;24.30;99.90;;;;;;20996263;28;20445;-78
2021/06/11 15:47:33;;;;;;;3.20;2.77;;;24.90;99.90;;;;;;20997301;28;20037;-77
2021/06/11 15:57:34;;;;;;;3.50;2.93;;;24.50;99.90;;;;;;20991765;28;20082;-77
2021/06/11 16:07:35;;;;;;;4.40;3.40;;;24.80;99.90;;;;;;20994141;28;20282;-77
2021/06/11 16:17:36;;;;;;;4.97;4.47;;;24.70;99.90;;;;;;20995662;28;20174;-77
2021/06/11 16:27:39;;;;;;;5.47;4.83;;;24.50;99.90;;;;;;20992842;28;20098;-77
2021/06/11 16:37:40;;;;;;;8.00;5.63;;;24.60;99.90;;;;;;20992167;28;20047;-77
2021/06/11 16:47:43;;;;;;;6.50;5.28;;;23.50;99.90;;;;;;20991188;28;20051;-77
2021/06/11 16:57:44;;;;;;;6.75;4.90;;;23.50;99.90;;;;;;20990331;28;20053;-77
2021/06/11 17:07:44;;;;;;;6.87;5.10;;;22.90;99.90;;;;;;21006559;28;20036;-77
2021/06/11 17:17:46;;;;;;;6.03;5.23;;;23.00;99.90;;;;;;20988092;28;20495;-77
2021/06/11 17:27:47;;;;;;;7.47;4.90;;;23.30;99.90;;;;;;21006406;28;20380;-78
2021/06/11 17:37:58;;;;;;;5.88;5.03;;;23.40;99.90;;;;;;21011978;28;20495;-78
2021/06/11 17:48:01;;;;;;;6.80;5.30;;;23.50;99.90;;;;;;21009789;28;20572;-78
2021/06/11 17:58:03;;;;;;;7.80;5.18;;;23.30;99.90;;;;;;21001371;28;20127;-78
2021/06/11 18:08:18;;;;;;;8.50;5.63;;;22.40;99.90;;;;;;21005562;28;20059;-80
2021/06/11 18:18:19;;;;;;;6.93;5.90;;;22.20;99.90;;;;;;21024691;28;20036;-80
2021/06/11 18:28:21;;;;;;;12.00;6.10;;;21.50;99.90;;;;;;21006280;28;20036;-81
2021/06/11 18:38:22;;;;;;;6.63;5.95;;;20.90;99.90;;;;;;21007351;28;20040;-81
2021/06/11 18:58:31;;;;;;;8.40;6.40;;;20.90;99.90;;;;;;21027032;28;20044;-79
2021/06/11 19:08:45;;;;;;;9.73;6.82;;;20.10;99.90;;;;;;20998657;28;20040;-81
2021/06/11 19:19:04;;;;;;;9.90;7.05;;;19.60;99.90;;;;;;20999021;28;20067;-81
2021/06/11 19:29:05;;;;;;;10.32;8.30;;;19.60;99.90;;;;;;21014226;28;20115;-80
2021/06/11 19:39:05;;;;;;;10.67;8.70;;;19.10;99.90;;;;;;21017472;28;20047;-79
2021/06/11 19:49:11;;;;;;;11.80;8.50;;;19.20;99.90;;;;;;21016404;28;20060;-80
2021/06/11 19:59:15;;;;;;;12.40;8.13;;;18.50;99.90;;;;;;20980850;28;20455;-80
2021/06/11 20:09:19;;;;;;;10.73;8.05;;;18.30;99.90;;;;;;20987350;28;20036;-77
2021/06/11 20:19:21;;;;;;;12.38;9.00;;;18.20;99.90;;;;;;20956874;28;20086;-77
2021/06/11 20:29:21;;;;;;;13.18;8.63;;;17.60;99.90;;;;;;20927044;28;20402;-76
2021/06/11 20:39:22;;;;;;;12.10;8.90;;;17.60;99.90;;;;;;21001864;28;20068;-77
2021/06/11 20:49:23;;;;;;;15.30;9.47;;;17.40;99.90;;;;;;21011311;28;20521;-77
2021/06/11 20:59:25;;;;;;;12.93;9.07;;;17.00;99.90;;;;;;21006005;28;20063;-77
2021/06/11 21:09:26;;;;;;;10.07;8.68;;;16.80;99.90;;;;;;21003098;28;20037;-82
2021/06/11 21:19:27;;;;;;;14.20;9.20;;;16.70;99.90;;;;;;20997760;28;20043;-79
2021/06/11 21:29:28;;;;;;;15.43;9.37;;;16.50;99.90;;;;;;21013127;28;20036;-79
2021/06/11 21:39:29;;;;;;;12.30;8.90;;;16.30;99.90;;;;;;21009325;28;20047;-77
2021/06/11 21:49:30;;;;;;;11.57;9.40;;;16.10;99.90;;;;;;21028906;28;20036;-80
2021/06/11 21:59:31;;;;;;;14.57;11.27;;;15.90;99.90;;;;;;21032228;28;20036;-80
2021/06/11 22:09:31;;;;;;;14.63;10.70;;;15.80;99.90;;;;;;21017758;28;20036;-77
2021/06/11 22:19:32;;;;;;;12.53;10.27;;;15.70;99.90;;;;;;21014057;28;20028;-79
2021/06/11 22:29:33;;;;;;;15.63;11.00;;;15.70;99.90;;;;;;21003408;28;20064;-79
2021/06/11 22:39:34;;;;;;;19.73;11.13;;;15.50;99.90;;;;;;21018334;28;20040;-81
2021/06/11 22:49:35;;;;;;;15.30;10.97;;;15.30;99.90;;;;;;21043566;28;20044;-79
2021/06/11 22:59:36;;;;;;;20.60;11.40;;;15.30;99.90;;;;;;21043274;28;20064;-80
2021/06/11 23:09:37;;;;;;;13.00;10.70;;;15.30;99.90;;;;;;21040698;28;20108;-80
2021/06/11 23:19:38;;;;;;;13.80;10.67;;;15.20;99.90;;;;;;21028642;28;20044;-79
2021/06/11 23:29:39;;;;;;;16.40;10.50;;;15.00;99.90;;;;;;21034288;28;20075;-79
2021/06/11 23:39:40;;;;;;;17.37;11.53;;;14.90;99.90;;;;;;21026287;28;20100;-80
2021/06/11 23:49:41;;;;;;;20.50;11.83;;;14.70;99.90;;;;;;21043539;28;20047;-79
2021/06/11 23:59:42;;;;;;;21.10;13.27;;;14.60;99.90;;;;;;21040661;28;20040;-80
